createdAt,value
2019-04-28T17:24:16.420Z,76.83
2019-04-28T17:26:48.214Z,76.55
2019-04-28T17:29:19.308Z,76.69
2019-04-28T17:31:50.454Z,76.94
2019-04-28T17:34:21.478Z,77.24
2019-04-28T17:36:53.925Z,77.40
2019-04-28T17:39:26.113Z,77.70
2019-04-28T17:42:00.202Z,77.50
2019-04-28T17:44:31.237Z,77.67
2019-04-28T17:48:58.721Z,77.43
2019-04-28T17:51:29.766Z,77.38
2019-04-28T17:54:00.843Z,77.71
2019-04-28T17:56:32.173Z,77.99
2019-04-28T17:59:03.435Z,78.05
2019-04-28T18:01:52.654Z,78.28
2019-04-28T18:04:25.234Z,78.64
2019-04-28T18:07:03.847Z,78.76
2019-04-28T18:09:36.286Z,78.83
2019-04-28T18:12:10.563Z,79.01
2019-04-28T18:14:43.247Z,79.19
2019-04-28T18:17:22.547Z,78.95
2019-04-28T18:19:53.682Z,79.08
2019-04-28T18:22:24.812Z,79.25
2019-04-28T18:24:55.753Z,79.16
2019-04-28T18:27:28.343Z,79.33
2019-04-28T18:30:00.945Z,79.45
2019-04-28T18:32:33.558Z,79.50
2019-04-28T18:35:25.011Z,79.31
2019-04-28T18:38:06.421Z,79.23
2019-04-28T18:40:39.202Z,79.01
2019-04-28T18:43:15.818Z,79.05
2019-04-28T18:45:46.897Z,78.91
2019-04-28T18:48:19.554Z,78.84
2019-04-28T18:50:50.721Z,78.94
2019-04-28T18:53:21.805Z,79.01
2019-04-28T18:55:54.540Z,78.89
2019-04-28T18:58:27.370Z,78.90
2019-04-28T19:00:59.938Z,78.72
2019-04-28T19:03:30.980Z,78.82
2019-04-28T19:06:01.984Z,78.87
2019-04-28T19:08:49.349Z,78.86
2019-04-28T19:11:24.618Z,78.61
2019-04-28T19:14:01.009Z,78.69
2019-04-28T19:16:51.656Z,78.59
2019-04-28T19:19:24.254Z,78.53
2019-04-28T19:21:56.273Z,78.37
2019-04-28T19:24:31.690Z,78.58
2019-04-28T19:27:02.693Z,78.42
2019-04-28T19:29:34.796Z,78.47
2019-04-28T19:32:05.791Z,78.31
2019-04-28T19:34:36.836Z,78.35
2019-04-28T19:37:11.002Z,78.19
2019-04-28T19:39:45.091Z,78.10
2019-04-28T19:42:17.786Z,78.02
2019-04-28T19:44:49.717Z,78.01
2019-04-28T19:47:20.790Z,78.03
2019-04-28T19:49:51.830Z,77.97
2019-04-28T19:52:22.832Z,78.11
2019-04-28T19:55:04.713Z,78.39
2019-04-28T19:57:55.474Z,78.17
2019-04-28T20:00:41.864Z,78.30
2019-04-28T20:03:12.897Z,78.43
2019-04-28T20:05:44.199Z,78.34
2019-04-28T20:08:15.199Z,78.66
2019-04-28T20:10:47.672Z,78.82
2019-04-28T20:13:20.190Z,78.83
2019-04-28T20:15:51.297Z,78.97
2019-04-28T20:18:22.404Z,79.41
2019-04-28T20:20:55.132Z,79.67
2019-04-28T20:23:26.132Z,79.72
2019-04-28T20:25:57.204Z,79.62
2019-04-28T20:28:28.342Z,79.67
2019-04-28T20:30:59.439Z,79.77
2019-04-28T20:33:30.386Z,79.66
2019-04-28T20:36:09.130Z,79.60
2019-04-28T20:38:40.280Z,79.20
2019-04-28T20:41:18.693Z,79.50
2019-04-28T20:43:51.860Z,79.22
2019-04-28T20:46:23.786Z,79.18
2019-04-28T20:48:54.810Z,79.30
2019-04-28T20:51:25.848Z,79.12
2019-04-28T20:53:58.390Z,79.12
2019-04-28T20:56:29.447Z,78.90
2019-04-28T20:59:00.490Z,78.86
2019-04-28T21:01:31.586Z,78.94
2019-04-28T21:04:02.671Z,78.77
2019-04-28T21:06:33.742Z,78.58
2019-04-28T21:09:09.513Z,78.46
2019-04-28T21:11:39.736Z,78.45
2019-04-28T21:14:12.251Z,78.39
2019-04-28T21:16:44.204Z,78.29
2019-04-28T21:19:18.321Z,78.36
2019-04-28T21:21:52.572Z,78.41
2019-04-28T21:24:23.611Z,78.49
2019-04-28T21:26:55.526Z,78.45
2019-04-28T21:29:26.611Z,78.31
2019-04-28T21:31:58.530Z,78.45
2019-04-28T21:34:29.560Z,78.52
2019-04-28T21:37:00.652Z,78.42
2019-04-28T21:39:31.702Z,78.45
2019-04-28T21:42:04.352Z,78.45
2019-04-28T21:44:53.232Z,78.35
2019-04-28T21:47:26.074Z,78.36
2019-04-28T21:49:57.146Z,78.21
2019-04-28T21:52:28.200Z,78.17
2019-04-28T21:55:00.817Z,78.24
2019-04-28T21:57:31.854Z,78.46
2019-04-28T22:00:08.204Z,78.50
2019-04-28T22:02:40.262Z,78.43
2019-04-28T22:05:12.846Z,78.21
2019-04-28T22:07:43.873Z,78.14
2019-04-28T22:10:14.892Z,78.41
2019-04-28T22:12:49.088Z,78.26
2019-04-28T22:15:21.798Z,78.51
2019-04-28T22:17:53.759Z,78.37
2019-04-28T22:20:24.786Z,78.46
2019-04-28T22:22:57.334Z,78.70
2019-04-28T22:25:28.336Z,78.61
2019-04-28T22:27:59.354Z,78.60
2019-04-28T22:30:30.605Z,78.54
2019-04-28T22:33:02.566Z,78.59
2019-04-28T22:35:33.626Z,78.68
2019-04-28T22:38:06.230Z,78.89
2019-04-28T22:40:40.507Z,78.90
2019-04-28T22:43:13.197Z,79.01
2019-04-28T22:45:44.210Z,79.01
2019-04-28T22:48:17.725Z,79.09
2019-04-28T22:50:50.297Z,79.04
2019-04-28T22:53:22.910Z,79.17
2019-04-28T22:55:58.593Z,79.08
2019-04-28T22:58:32.102Z,79.46
2019-04-28T23:01:13.576Z,79.36
2019-04-28T23:03:52.416Z,79.47
2019-04-28T23:06:23.611Z,79.30
2019-04-28T23:08:54.577Z,79.12
2019-04-28T23:11:25.688Z,79.26
2019-04-28T23:13:56.723Z,79.34
2019-04-28T23:16:27.855Z,79.38
2019-04-28T23:19:01.759Z,79.21
2019-04-28T23:21:46.483Z,79.39
2019-04-28T23:24:19.061Z,79.34
2019-04-28T23:26:51.663Z,79.61
2019-04-28T23:29:22.625Z,79.60
2019-04-28T23:31:55.214Z,79.34
2019-04-28T23:34:27.137Z,79.32
2019-04-28T23:36:58.141Z,79.29
2019-04-28T23:39:29.168Z,79.19
2019-04-28T23:42:18.283Z,79.25
2019-04-28T23:44:50.258Z,79.24
2019-04-28T23:47:21.254Z,79.52
2019-04-28T23:49:52.319Z,79.49
2019-04-28T23:52:25.180Z,79.36
2019-04-28T23:55:00.827Z,79.65
2019-04-28T23:57:31.828Z,79.49
